Terminal Aerodrome Forecast
Issued by NWS

Home | Current Version | Previous Version | Graphics & Text | Print | Product List | Glossary On
Versions: 1 2 3 4 5 6 7 8 9 10 11 12 13 14 15 16 17 18 19 20 21 22 23 24 25 26 27 28 29
731
FTUS43 KLOT 211738
TAFORD
TAF
KORD 211738Z 2118/2224 35014KT P6SM BKN120
     FM211900 02014KT P6SM BKN120
     FM220000 03012G18KT P6SM BKN035
     FM220300 03012G18KT P6SM BKN015
     FM221700 06012KT P6SM SCT015 BKN200=

USA.gov is the U.S. government's official web portal to all federal, state and local government web resources and services.